sensor_id;sensor_type;location;lat;lon;timestamp;P1;durP1;ratioP1;P2;durP2;ratioP2
45988;SDS011;31718;50.762;12.764;2022-07-06T00:01:41;7.57;;;2.22;;
45988;SDS011;31718;50.762;12.764;2022-07-06T00:04:07;4.13;;;2.08;;
45988;SDS011;31718;50.762;12.764;2022-07-06T00:06:32;5.13;;;2.70;;
45988;SDS011;31718;50.762;12.764;2022-07-06T00:08:58;5.45;;;2.80;;
45988;SDS011;31718;50.762;12.764;2022-07-06T00:11:24;7.32;;;3.00;;
45988;SDS011;31718;50.762;12.764;2022-07-06T00:13:50;6.07;;;2.72;;
45988;SDS011;31718;50.762;12.764;2022-07-06T00:16:17;7.20;;;2.90;;
45988;SDS011;31718;50.762;12.764;2022-07-06T00:18:43;5.95;;;3.20;;
45988;SDS011;31718;50.762;12.764;2022-07-06T00:21:09;5.68;;;3.10;;
45988;SDS011;31718;50.762;12.764;2022-07-06T00:23:34;8.32;;;2.95;;
45988;SDS011;31718;50.762;12.764;2022-07-06T00:26:00;5.50;;;2.80;;
45988;SDS011;31718;50.762;12.764;2022-07-06T00:28:26;5.95;;;2.70;;
45988;SDS011;31718;50.762;12.764;2022-07-06T00:30:52;5.50;;;3.35;;
45988;SDS011;31718;50.762;12.764;2022-07-06T00:33:18;7.20;;;3.47;;
45988;SDS011;31718;50.762;12.764;2022-07-06T00:35:44;7.03;;;2.70;;
45988;SDS011;31718;50.762;12.764;2022-07-06T00:38:10;5.30;;;2.75;;
45988;SDS011;31718;50.762;12.764;2022-07-06T00:40:35;5.78;;;3.05;;
45988;SDS011;31718;50.762;12.764;2022-07-06T00:43:01;5.50;;;2.90;;
45988;SDS011;31718;50.762;12.764;2022-07-06T00:45:27;6.88;;;2.92;;
45988;SDS011;31718;50.762;12.764;2022-07-06T00:47:53;6.93;;;3.05;;
45988;SDS011;31718;50.762;12.764;2022-07-06T00:50:18;6.10;;;3.63;;
45988;SDS011;31718;50.762;12.764;2022-07-06T00:52:48;6.70;;;3.00;;
45988;SDS011;31718;50.762;12.764;2022-07-06T00:55:20;4.72;;;2.70;;
45988;SDS011;31718;50.762;12.764;2022-07-06T00:57:47;6.22;;;2.90;;
45988;SDS011;31718;50.762;12.764;2022-07-06T01:00:14;5.22;;;2.75;;
45988;SDS011;31718;50.762;12.764;2022-07-06T01:02:41;4.90;;;2.80;;
45988;SDS011;31718;50.762;12.764;2022-07-06T01:05:08;6.10;;;2.75;;
45988;SDS011;31718;50.762;12.764;2022-07-06T01:07:35;6.95;;;2.50;;
45988;SDS011;31718;50.762;12.764;2022-07-06T01:10:03;5.75;;;2.45;;
45988;SDS011;31718;50.762;12.764;2022-07-06T01:12:29;5.10;;;2.80;;
45988;SDS011;31718;50.762;12.764;2022-07-06T01:14:56;6.55;;;2.65;;
45988;SDS011;31718;50.762;12.764;2022-07-06T01:17:22;4.80;;;2.67;;
45988;SDS011;31718;50.762;12.764;2022-07-06T01:19:48;6.00;;;2.63;;
45988;SDS011;31718;50.762;12.764;2022-07-06T01:22:14;5.68;;;2.75;;
45988;SDS011;31718;50.762;12.764;2022-07-06T01:24:40;6.68;;;2.60;;
45988;SDS011;31718;50.762;12.764;2022-07-06T01:27:06;5.10;;;2.70;;
45988;SDS011;31718;50.762;12.764;2022-07-06T01:29:33;7.38;;;2.70;;
45988;SDS011;31718;50.762;12.764;2022-07-06T01:31:59;5.60;;;2.80;;
45988;SDS011;31718;50.762;12.764;2022-07-06T01:34:26;4.97;;;2.70;;
45988;SDS011;31718;50.762;12.764;2022-07-06T01:36:51;4.63;;;2.60;;
45988;SDS011;31718;50.762;12.764;2022-07-06T01:39:17;6.15;;;2.40;;
45988;SDS011;31718;50.762;12.764;2022-07-06T01:41:43;4.75;;;2.58;;
45988;SDS011;31718;50.762;12.764;2022-07-06T01:44:09;5.65;;;2.50;;
45988;SDS011;31718;50.762;12.764;2022-07-06T01:46:35;7.05;;;2.60;;
45988;SDS011;31718;50.762;12.764;2022-07-06T01:49:01;5.97;;;2.63;;
45988;SDS011;31718;50.762;12.764;2022-07-06T01:51:27;5.80;;;2.80;;
45988;SDS011;31718;50.762;12.764;2022-07-06T01:53:53;6.25;;;2.50;;
45988;SDS011;31718;50.762;12.764;2022-07-06T01:56:19;6.35;;;2.40;;
45988;SDS011;31718;50.762;12.764;2022-07-06T01:58:48;4.60;;;2.40;;
45988;SDS011;31718;50.762;12.764;2022-07-06T02:01:18;5.63;;;2.72;;
45988;SDS011;31718;50.762;12.764;2022-07-06T02:03:44;5.68;;;2.47;;
45988;SDS011;31718;50.762;12.764;2022-07-06T02:06:11;5.97;;;3.22;;
45988;SDS011;31718;50.762;12.764;2022-07-06T02:08:37;6.43;;;2.40;;
45988;SDS011;31718;50.762;12.764;2022-07-06T02:11:05;5.30;;;2.50;;
45988;SDS011;31718;50.762;12.764;2022-07-06T02:13:31;6.60;;;2.80;;
45988;SDS011;31718;50.762;12.764;2022-07-06T02:15:57;5.05;;;2.50;;
45988;SDS011;31718;50.762;12.764;2022-07-06T02:18:23;5.65;;;2.40;;
45988;SDS011;31718;50.762;12.764;2022-07-06T02:20:48;5.57;;;2.50;;
45988;SDS011;31718;50.762;12.764;2022-07-06T02:23:14;5.15;;;2.40;;
45988;SDS011;31718;50.762;12.764;2022-07-06T02:25:40;4.50;;;2.20;;
45988;SDS011;31718;50.762;12.764;2022-07-06T02:28:06;4.50;;;2.30;;
45988;SDS011;31718;50.762;12.764;2022-07-06T02:30:31;5.03;;;2.53;;
45988;SDS011;31718;50.762;12.764;2022-07-06T02:32:57;5.13;;;2.63;;
45988;SDS011;31718;50.762;12.764;2022-07-06T02:35:23;5.30;;;2.40;;
45988;SDS011;31718;50.762;12.764;2022-07-06T02:37:48;4.80;;;2.50;;
45988;SDS011;31718;50.762;12.764;2022-07-06T02:40:14;5.80;;;2.83;;
45988;SDS011;31718;50.762;12.764;2022-07-06T02:42:39;5.55;;;2.70;;
45988;SDS011;31718;50.762;12.764;2022-07-06T02:45:06;4.60;;;2.40;;
45988;SDS011;31718;50.762;12.764;2022-07-06T02:47:32;6.82;;;2.72;;
45988;SDS011;31718;50.762;12.764;2022-07-06T02:49:57;5.80;;;2.30;;
45988;SDS011;31718;50.762;12.764;2022-07-06T02:52:23;5.30;;;2.45;;
45988;SDS011;31718;50.762;12.764;2022-07-06T02:54:49;5.68;;;2.53;;
45988;SDS011;31718;50.762;12.764;2022-07-06T02:57:15;5.45;;;2.40;;
45988;SDS011;31718;50.762;12.764;2022-07-06T02:59:41;5.10;;;2.70;;
45988;SDS011;31718;50.762;12.764;2022-07-06T03:02:07;5.97;;;2.60;;
45988;SDS011;31718;50.762;12.764;2022-07-06T03:04:33;5.55;;;2.47;;
45988;SDS011;31718;50.762;12.764;2022-07-06T03:06:59;5.60;;;2.65;;
45988;SDS011;31718;50.762;12.764;2022-07-06T03:09:25;5.20;;;2.63;;
45988;SDS011;31718;50.762;12.764;2022-07-06T03:11:51;6.03;;;2.60;;
45988;SDS011;31718;50.762;12.764;2022-07-06T03:14:16;4.65;;;2.35;;
45988;SDS011;31718;50.762;12.764;2022-07-06T03:16:42;6.53;;;2.50;;
45988;SDS011;31718;50.762;12.764;2022-07-06T03:19:08;5.85;;;3.08;;
45988;SDS011;31718;50.762;12.764;2022-07-06T03:21:34;5.43;;;2.50;;
45988;SDS011;31718;50.762;12.764;2022-07-06T03:23:59;6.25;;;2.92;;
45988;SDS011;31718;50.762;12.764;2022-07-06T03:26:25;4.78;;;2.40;;
45988;SDS011;31718;50.762;12.764;2022-07-06T03:28:51;4.78;;;2.40;;
45988;SDS011;31718;50.762;12.764;2022-07-06T03:31:16;5.70;;;2.45;;
45988;SDS011;31718;50.762;12.764;2022-07-06T03:33:42;5.85;;;2.40;;
45988;SDS011;31718;50.762;12.764;2022-07-06T03:36:08;4.90;;;2.40;;
45988;SDS011;31718;50.762;12.764;2022-07-06T03:38:34;7.50;;;2.63;;
45988;SDS011;31718;50.762;12.764;2022-07-06T03:41:00;5.97;;;2.95;;
45988;SDS011;31718;50.762;12.764;2022-07-06T03:43:26;4.85;;;2.45;;
45988;SDS011;31718;50.762;12.764;2022-07-06T03:45:52;5.60;;;2.45;;
45988;SDS011;31718;50.762;12.764;2022-07-06T03:48:17;5.47;;;2.55;;
45988;SDS011;31718;50.762;12.764;2022-07-06T03:50:43;5.43;;;2.83;;
45988;SDS011;31718;50.762;12.764;2022-07-06T03:53:09;6.00;;;2.90;;
45988;SDS011;31718;50.762;12.764;2022-07-06T03:55:34;5.15;;;3.10;;
45988;SDS011;31718;50.762;12.764;2022-07-06T03:58:00;5.78;;;2.83;;
45988;SDS011;31718;50.762;12.764;2022-07-06T04:00:26;5.65;;;3.30;;
45988;SDS011;31718;50.762;12.764;2022-07-06T04:02:52;5.93;;;3.10;;
45988;SDS011;31718;50.762;12.764;2022-07-06T04:05:17;6.60;;;3.42;;
45988;SDS011;31718;50.762;12.764;2022-07-06T04:07:49;5.57;;;3.20;;
45988;SDS011;31718;50.762;12.764;2022-07-06T04:10:15;7.07;;;3.53;;
45988;SDS011;31718;50.762;12.764;2022-07-06T04:12:42;5.30;;;2.70;;
45988;SDS011;31718;50.762;12.764;2022-07-06T04:15:08;6.80;;;2.83;;
45988;SDS011;31718;50.762;12.764;2022-07-06T04:17:35;8.20;;;3.25;;
45988;SDS011;31718;50.762;12.764;2022-07-06T04:20:20;6.07;;;3.40;;
45988;SDS011;31718;50.762;12.764;2022-07-06T04:22:49;7.63;;;3.83;;
45988;SDS011;31718;50.762;12.764;2022-07-06T04:25:15;6.80;;;3.20;;
45988;SDS011;31718;50.762;12.764;2022-07-06T04:27:41;5.22;;;3.10;;
45988;SDS011;31718;50.762;12.764;2022-07-06T04:30:07;5.25;;;3.00;;
45988;SDS011;31718;50.762;12.764;2022-07-06T04:32:33;7.40;;;2.95;;
45988;SDS011;31718;50.762;12.764;2022-07-06T04:35:00;6.47;;;3.22;;
45988;SDS011;31718;50.762;12.764;2022-07-06T04:37:26;5.65;;;3.40;;
45988;SDS011;31718;50.762;12.764;2022-07-06T04:39:52;5.55;;;2.92;;
45988;SDS011;31718;50.762;12.764;2022-07-06T04:42:17;5.63;;;2.90;;
45988;SDS011;31718;50.762;12.764;2022-07-06T04:44:43;6.35;;;3.78;;
45988;SDS011;31718;50.762;12.764;2022-07-06T04:47:09;6.70;;;3.55;;
45988;SDS011;31718;50.762;12.764;2022-07-06T04:49:34;6.95;;;3.60;;
45988;SDS011;31718;50.762;12.764;2022-07-06T04:52:00;6.40;;;3.58;;
45988;SDS011;31718;50.762;12.764;2022-07-06T04:54:25;9.57;;;6.70;;
45988;SDS011;31718;50.762;12.764;2022-07-06T04:56:51;9.15;;;6.60;;
45988;SDS011;31718;50.762;12.764;2022-07-06T04:59:16;7.32;;;5.03;;
45988;SDS011;31718;50.762;12.764;2022-07-06T05:01:42;6.78;;;4.00;;
45988;SDS011;31718;50.762;12.764;2022-07-06T05:04:08;8.07;;;3.47;;
45988;SDS011;31718;50.762;12.764;2022-07-06T05:06:34;6.40;;;3.30;;
45988;SDS011;31718;50.762;12.764;2022-07-06T05:09:00;8.77;;;5.50;;
45988;SDS011;31718;50.762;12.764;2022-07-06T05:11:28;8.77;;;6.28;;
45988;SDS011;31718;50.762;12.764;2022-07-06T05:13:54;9.70;;;6.88;;
45988;SDS011;31718;50.762;12.764;2022-07-06T05:16:20;7.30;;;4.40;;
45988;SDS011;31718;50.762;12.764;2022-07-06T05:18:47;6.75;;;3.22;;
45988;SDS011;31718;50.762;12.764;2022-07-06T05:21:13;7.68;;;3.83;;
45988;SDS011;31718;50.762;12.764;2022-07-06T05:23:38;6.03;;;3.00;;
45988;SDS011;31718;50.762;12.764;2022-07-06T05:26:04;8.35;;;2.70;;
45988;SDS011;31718;50.762;12.764;2022-07-06T05:28:30;5.40;;;2.67;;
45988;SDS011;31718;50.762;12.764;2022-07-06T05:30:56;8.20;;;3.25;;
45988;SDS011;31718;50.762;12.764;2022-07-06T05:33:21;5.68;;;2.80;;
45988;SDS011;31718;50.762;12.764;2022-07-06T05:35:47;5.78;;;2.90;;
45988;SDS011;31718;50.762;12.764;2022-07-06T05:38:13;6.72;;;2.78;;
45988;SDS011;31718;50.762;12.764;2022-07-06T05:40:38;5.22;;;2.55;;
45988;SDS011;31718;50.762;12.764;2022-07-06T05:43:04;6.35;;;2.65;;
45988;SDS011;31718;50.762;12.764;2022-07-06T05:45:29;6.07;;;2.33;;
45988;SDS011;31718;50.762;12.764;2022-07-06T05:47:55;5.43;;;2.38;;
45988;SDS011;31718;50.762;12.764;2022-07-06T05:50:39;5.63;;;2.50;;
45988;SDS011;31718;50.762;12.764;2022-07-06T05:53:05;5.50;;;2.70;;
45988;SDS011;31718;50.762;12.764;2022-07-06T05:55:32;6.68;;;2.55;;
45988;SDS011;31718;50.762;12.764;2022-07-06T05:57:58;7.30;;;2.50;;
45988;SDS011;31718;50.762;12.764;2022-07-06T06:00:25;7.97;;;2.25;;
45988;SDS011;31718;50.762;12.764;2022-07-06T06:02:51;6.03;;;2.42;;
45988;SDS011;31718;50.762;12.764;2022-07-06T06:05:18;7.30;;;2.35;;
45988;SDS011;31718;50.762;12.764;2022-07-06T06:07:44;6.03;;;2.22;;
45988;SDS011;31718;50.762;12.764;2022-07-06T06:10:11;7.85;;;2.40;;
45988;SDS011;31718;50.762;12.764;2022-07-06T06:12:38;6.40;;;2.20;;
45988;SDS011;31718;50.762;12.764;2022-07-06T06:15:05;6.05;;;2.30;;
45988;SDS011;31718;50.762;12.764;2022-07-06T06:17:31;7.13;;;2.08;;
45988;SDS011;31718;50.762;12.764;2022-07-06T06:19:57;6.15;;;1.98;;
45988;SDS011;31718;50.762;12.764;2022-07-06T06:22:23;5.93;;;1.85;;
45988;SDS011;31718;50.762;12.764;2022-07-06T06:24:49;9.25;;;2.30;;
45988;SDS011;31718;50.762;12.764;2022-07-06T06:27:15;5.57;;;2.13;;
45988;SDS011;31718;50.762;12.764;2022-07-06T06:29:41;6.22;;;1.88;;
45988;SDS011;31718;50.762;12.764;2022-07-06T06:32:07;10.23;;;2.88;;
45988;SDS011;31718;50.762;12.764;2022-07-06T06:34:32;6.32;;;1.98;;
45988;SDS011;31718;50.762;12.764;2022-07-06T06:36:58;5.80;;;1.90;;
45988;SDS011;31718;50.762;12.764;2022-07-06T06:39:24;10.43;;;2.10;;
45988;SDS011;31718;50.762;12.764;2022-07-06T06:41:50;8.73;;;1.90;;
45988;SDS011;31718;50.762;12.764;2022-07-06T06:44:15;5.57;;;1.83;;
45988;SDS011;31718;50.762;12.764;2022-07-06T06:46:42;5.78;;;1.77;;
45988;SDS011;31718;50.762;12.764;2022-07-06T06:49:08;5.90;;;1.70;;
45988;SDS011;31718;50.762;12.764;2022-07-06T06:51:34;7.35;;;1.92;;
45988;SDS011;31718;50.762;12.764;2022-07-06T06:53:59;6.95;;;1.55;;
45988;SDS011;31718;50.762;12.764;2022-07-06T06:56:26;7.00;;;2.28;;
45988;SDS011;31718;50.762;12.764;2022-07-06T06:58:51;6.35;;;1.50;;
45988;SDS011;31718;50.762;12.764;2022-07-06T07:01:17;6.30;;;1.80;;
45988;SDS011;31718;50.762;12.764;2022-07-06T07:03:43;5.13;;;1.55;;
45988;SDS011;31718;50.762;12.764;2022-07-06T07:06:08;5.55;;;1.58;;
45988;SDS011;31718;50.762;12.764;2022-07-06T07:08:34;5.47;;;1.60;;
45988;SDS011;31718;50.762;12.764;2022-07-06T07:10:59;5.10;;;1.50;;
45988;SDS011;31718;50.762;12.764;2022-07-06T07:13:25;4.72;;;1.40;;
45988;SDS011;31718;50.762;12.764;2022-07-06T07:15:50;6.70;;;1.88;;
45988;SDS011;31718;50.762;12.764;2022-07-06T07:18:16;4.97;;;1.58;;
45988;SDS011;31718;50.762;12.764;2022-07-06T07:20:42;5.43;;;1.70;;
45988;SDS011;31718;50.762;12.764;2022-07-06T07:23:07;7.45;;;1.73;;
45988;SDS011;31718;50.762;12.764;2022-07-06T07:25:33;4.28;;;1.75;;
45988;SDS011;31718;50.762;12.764;2022-07-06T07:27:59;5.03;;;2.10;;
45988;SDS011;31718;50.762;12.764;2022-07-06T07:30:25;6.38;;;1.92;;
45988;SDS011;31718;50.762;12.764;2022-07-06T07:32:50;5.90;;;1.70;;
45988;SDS011;31718;50.762;12.764;2022-07-06T07:35:16;5.30;;;1.58;;
45988;SDS011;31718;50.762;12.764;2022-07-06T07:37:42;5.68;;;1.60;;
45988;SDS011;31718;50.762;12.764;2022-07-06T07:40:08;5.25;;;1.65;;
45988;SDS011;31718;50.762;12.764;2022-07-06T07:42:34;6.43;;;1.80;;
45988;SDS011;31718;50.762;12.764;2022-07-06T07:45:00;5.78;;;1.80;;
45988;SDS011;31718;50.762;12.764;2022-07-06T07:47:26;6.22;;;1.65;;
45988;SDS011;31718;50.762;12.764;2022-07-06T07:49:51;7.95;;;1.88;;
45988;SDS011;31718;50.762;12.764;2022-07-06T07:52:17;8.80;;;2.78;;
45988;SDS011;31718;50.762;12.764;2022-07-06T07:54:42;6.53;;;2.00;;
45988;SDS011;31718;50.762;12.764;2022-07-06T07:57:08;8.13;;;1.92;;
45988;SDS011;31718;50.762;12.764;2022-07-06T07:59:35;6.20;;;2.00;;
45988;SDS011;31718;50.762;12.764;2022-07-06T08:02:00;6.43;;;1.80;;
45988;SDS011;31718;50.762;12.764;2022-07-06T08:04:26;4.50;;;1.63;;
45988;SDS011;31718;50.762;12.764;2022-07-06T08:06:52;6.30;;;2.15;;
45988;SDS011;31718;50.762;12.764;2022-07-06T08:09:17;6.07;;;2.00;;
45988;SDS011;31718;50.762;12.764;2022-07-06T08:11:43;5.97;;;1.92;;
45988;SDS011;31718;50.762;12.764;2022-07-06T08:14:09;5.85;;;1.80;;
45988;SDS011;31718;50.762;12.764;2022-07-06T08:16:35;6.78;;;1.98;;
45988;SDS011;31718;50.762;12.764;2022-07-06T08:19:00;5.85;;;1.50;;
45988;SDS011;31718;50.762;12.764;2022-07-06T08:21:26;4.30;;;1.65;;
45988;SDS011;31718;50.762;12.764;2022-07-06T08:23:52;5.10;;;1.80;;
45988;SDS011;31718;50.762;12.764;2022-07-06T08:26:18;5.65;;;1.70;;
45988;SDS011;31718;50.762;12.764;2022-07-06T08:28:44;6.25;;;1.83;;
45988;SDS011;31718;50.762;12.764;2022-07-06T08:31:10;4.55;;;1.45;;
45988;SDS011;31718;50.762;12.764;2022-07-06T08:33:36;4.80;;;1.48;;
45988;SDS011;31718;50.762;12.764;2022-07-06T08:36:01;6.03;;;1.65;;
45988;SDS011;31718;50.762;12.764;2022-07-06T08:38:27;6.10;;;1.65;;
45988;SDS011;31718;50.762;12.764;2022-07-06T08:40:53;5.20;;;1.55;;
45988;SDS011;31718;50.762;12.764;2022-07-06T08:43:19;5.57;;;1.38;;
45988;SDS011;31718;50.762;12.764;2022-07-06T08:45:45;6.40;;;1.30;;
45988;SDS011;31718;50.762;12.764;2022-07-06T08:48:14;5.20;;;1.30;;
45988;SDS011;31718;50.762;12.764;2022-07-06T08:50:40;6.97;;;1.42;;
45988;SDS011;31718;50.762;12.764;2022-07-06T08:53:06;4.43;;;1.30;;
45988;SDS011;31718;50.762;12.764;2022-07-06T08:55:31;7.78;;;1.50;;
45988;SDS011;31718;50.762;12.764;2022-07-06T08:58:00;5.63;;;1.40;;
45988;SDS011;31718;50.762;12.764;2022-07-06T09:00:25;4.97;;;1.60;;
45988;SDS011;31718;50.762;12.764;2022-07-06T09:02:51;5.05;;;1.70;;
45988;SDS011;31718;50.762;12.764;2022-07-06T09:05:22;5.88;;;1.50;;
45988;SDS011;31718;50.762;12.764;2022-07-06T09:07:49;6.07;;;1.55;;
45988;SDS011;31718;50.762;12.764;2022-07-06T09:10:19;4.22;;;1.30;;
45988;SDS011;31718;50.762;12.764;2022-07-06T09:12:47;4.30;;;1.50;;
45988;SDS011;31718;50.762;12.764;2022-07-06T09:15:13;4.70;;;1.60;;
45988;SDS011;31718;50.762;12.764;2022-07-06T09:17:39;5.75;;;1.50;;
45988;SDS011;31718;50.762;12.764;2022-07-06T09:20:07;6.80;;;1.60;;
45988;SDS011;31718;50.762;12.764;2022-07-06T09:22:37;4.30;;;1.42;;
45988;SDS011;31718;50.762;12.764;2022-07-06T09:25:11;6.22;;;1.70;;
45988;SDS011;31718;50.762;12.764;2022-07-06T09:27:41;5.60;;;1.70;;
45988;SDS011;31718;50.762;12.764;2022-07-06T09:30:11;5.18;;;1.60;;
45988;SDS011;31718;50.762;12.764;2022-07-06T09:35:07;6.50;;;1.75;;
45988;SDS011;31718;50.762;12.764;2022-07-06T09:37:33;6.45;;;1.90;;
45988;SDS011;31718;50.762;12.764;2022-07-06T09:39:59;5.22;;;1.67;;
45988;SDS011;31718;50.762;12.764;2022-07-06T09:42:26;4.93;;;1.52;;
45988;SDS011;31718;50.762;12.764;2022-07-06T09:44:52;4.97;;;1.25;;
45988;SDS011;31718;50.762;12.764;2022-07-06T09:47:18;5.60;;;1.30;;
45988;SDS011;31718;50.762;12.764;2022-07-06T09:49:44;5.70;;;1.52;;
45988;SDS011;31718;50.762;12.764;2022-07-06T09:52:11;4.60;;;1.58;;
45988;SDS011;31718;50.762;12.764;2022-07-06T09:54:37;6.10;;;1.48;;
45988;SDS011;31718;50.762;12.764;2022-07-06T09:57:04;4.32;;;1.55;;
45988;SDS011;31718;50.762;12.764;2022-07-06T09:59:31;5.45;;;1.50;;
45988;SDS011;31718;50.762;12.764;2022-07-06T10:01:58;8.05;;;1.83;;
45988;SDS011;31718;50.762;12.764;2022-07-06T10:04:26;5.63;;;1.70;;
45988;SDS011;31718;50.762;12.764;2022-07-06T10:06:54;5.75;;;1.67;;
45988;SDS011;31718;50.762;12.764;2022-07-06T10:09:21;5.28;;;2.08;;
45988;SDS011;31718;50.762;12.764;2022-07-06T10:11:49;6.55;;;1.80;;
45988;SDS011;31718;50.762;12.764;2022-07-06T10:14:23;5.28;;;1.63;;
45988;SDS011;31718;50.762;12.764;2022-07-06T10:16:52;5.50;;;2.03;;
45988;SDS011;31718;50.762;12.764;2022-07-06T10:19:21;5.75;;;1.88;;
45988;SDS011;31718;50.762;12.764;2022-07-06T10:21:47;5.40;;;2.10;;
45988;SDS011;31718;50.762;12.764;2022-07-06T10:24:13;4.90;;;1.92;;
45988;SDS011;31718;50.762;12.764;2022-07-06T10:26:39;6.13;;;2.00;;
45988;SDS011;31718;50.762;12.764;2022-07-06T10:29:06;5.25;;;1.90;;
45988;SDS011;31718;50.762;12.764;2022-07-06T10:31:33;5.38;;;2.20;;
45988;SDS011;31718;50.762;12.764;2022-07-06T10:34:06;5.57;;;2.30;;
45988;SDS011;31718;50.762;12.764;2022-07-06T10:36:38;4.75;;;2.10;;
45988;SDS011;31718;50.762;12.764;2022-07-06T10:39:05;6.43;;;2.28;;
45988;SDS011;31718;50.762;12.764;2022-07-06T10:41:51;5.35;;;2.05;;
45988;SDS011;31718;50.762;12.764;2022-07-06T10:44:18;4.70;;;1.70;;
45988;SDS011;31718;50.762;12.764;2022-07-06T10:46:55;5.57;;;1.85;;
45988;SDS011;31718;50.762;12.764;2022-07-06T10:54:19;6.18;;;2.00;;
45988;SDS011;31718;50.762;12.764;2022-07-06T10:56:46;6.05;;;2.45;;
45988;SDS011;31718;50.762;12.764;2022-07-06T10:59:23;5.20;;;2.00;;
45988;SDS011;31718;50.762;12.764;2022-07-06T11:04:41;5.47;;;2.40;;
45988;SDS011;31718;50.762;12.764;2022-07-06T11:07:12;6.32;;;2.30;;
45988;SDS011;31718;50.762;12.764;2022-07-06T11:09:39;6.03;;;2.35;;
45988;SDS011;31718;50.762;12.764;2022-07-06T11:12:21;5.18;;;2.40;;
45988;SDS011;31718;50.762;12.764;2022-07-06T11:14:48;6.28;;;2.75;;
45988;SDS011;31718;50.762;12.764;2022-07-06T11:17:15;5.07;;;2.05;;
45988;SDS011;31718;50.762;12.764;2022-07-06T11:19:48;7.10;;;2.83;;
45988;SDS011;31718;50.762;12.764;2022-07-06T11:22:15;5.55;;;2.10;;
45988;SDS011;31718;50.762;12.764;2022-07-06T11:24:41;5.20;;;1.90;;
45988;SDS011;31718;50.762;12.764;2022-07-06T11:27:07;5.57;;;1.90;;
45988;SDS011;31718;50.762;12.764;2022-07-06T11:29:33;4.57;;;2.00;;
45988;SDS011;31718;50.762;12.764;2022-07-06T11:32:01;6.63;;;1.90;;
45988;SDS011;31718;50.762;12.764;2022-07-06T11:34:30;6.20;;;2.10;;
45988;SDS011;31718;50.762;12.764;2022-07-06T11:36:57;5.30;;;1.90;;
45988;SDS011;31718;50.762;12.764;2022-07-06T11:39:28;5.97;;;2.30;;
45988;SDS011;31718;50.762;12.764;2022-07-06T11:41:55;5.05;;;2.40;;
45988;SDS011;31718;50.762;12.764;2022-07-06T11:44:21;5.35;;;2.00;;
45988;SDS011;31718;50.762;12.764;2022-07-06T11:46:47;5.80;;;1.90;;
45988;SDS011;31718;50.762;12.764;2022-07-06T11:49:13;8.07;;;2.72;;
45988;SDS011;31718;50.762;12.764;2022-07-06T11:51:39;6.30;;;1.90;;
45988;SDS011;31718;50.762;12.764;2022-07-06T11:59:11;5.90;;;1.77;;
45988;SDS011;31718;50.762;12.764;2022-07-06T12:01:37;4.60;;;1.60;;
45988;SDS011;31718;50.762;12.764;2022-07-06T12:04:07;4.30;;;1.50;;
45988;SDS011;31718;50.762;12.764;2022-07-06T12:06:33;4.80;;;1.70;;
45988;SDS011;31718;50.762;12.764;2022-07-06T12:08:59;5.45;;;1.80;;
45988;SDS011;31718;50.762;12.764;2022-07-06T12:11:29;4.13;;;1.40;;
45988;SDS011;31718;50.762;12.764;2022-07-06T12:13:59;5.97;;;1.60;;
45988;SDS011;31718;50.762;12.764;2022-07-06T12:16:30;4.60;;;1.60;;
45988;SDS011;31718;50.762;12.764;2022-07-06T12:19:01;5.20;;;1.58;;
45988;SDS011;31718;50.762;12.764;2022-07-06T12:21:28;4.82;;;1.42;;
45988;SDS011;31718;50.762;12.764;2022-07-06T12:23:55;6.10;;;1.40;;
45988;SDS011;31718;50.762;12.764;2022-07-06T12:26:22;5.45;;;1.35;;
45988;SDS011;31718;50.762;12.764;2022-07-06T12:29:09;4.55;;;1.30;;
45988;SDS011;31718;50.762;12.764;2022-07-06T12:32:13;5.82;;;1.45;;
45988;SDS011;31718;50.762;12.764;2022-07-06T12:34:30;4.78;;;1.42;;
45988;SDS011;31718;50.762;12.764;2022-07-06T12:36:59;5.68;;;1.65;;
45988;SDS011;31718;50.762;12.764;2022-07-06T12:39:32;4.88;;;1.60;;
45988;SDS011;31718;50.762;12.764;2022-07-06T12:42:15;4.60;;;1.50;;
45988;SDS011;31718;50.762;12.764;2022-07-06T12:44:43;4.50;;;1.30;;
45988;SDS011;31718;50.762;12.764;2022-07-06T12:47:11;5.88;;;1.40;;
45988;SDS011;31718;50.762;12.764;2022-07-06T12:49:37;5.25;;;1.35;;
45988;SDS011;31718;50.762;12.764;2022-07-06T12:54:43;5.72;;;1.50;;
45988;SDS011;31718;50.762;12.764;2022-07-06T12:57:17;4.65;;;1.40;;
45988;SDS011;31718;50.762;12.764;2022-07-06T12:59:46;4.45;;;1.60;;
45988;SDS011;31718;50.762;12.764;2022-07-06T13:04:59;5.05;;;1.63;;
45988;SDS011;31718;50.762;12.764;2022-07-06T13:07:27;4.97;;;1.60;;
45988;SDS011;31718;50.762;12.764;2022-07-06T13:09:56;4.35;;;1.40;;
45988;SDS011;31718;50.762;12.764;2022-07-06T13:12:23;4.97;;;1.50;;
45988;SDS011;31718;50.762;12.764;2022-07-06T13:14:49;5.55;;;1.70;;
45988;SDS011;31718;50.762;12.764;2022-07-06T13:17:14;6.75;;;1.60;;
45988;SDS011;31718;50.762;12.764;2022-07-06T13:19:40;6.10;;;1.38;;
45988;SDS011;31718;50.762;12.764;2022-07-06T13:22:06;4.35;;;1.50;;
45988;SDS011;31718;50.762;12.764;2022-07-06T13:24:31;5.95;;;1.70;;
45988;SDS011;31718;50.762;12.764;2022-07-06T13:26:57;5.10;;;1.58;;
45988;SDS011;31718;50.762;12.764;2022-07-06T13:29:23;5.07;;;1.55;;
45988;SDS011;31718;50.762;12.764;2022-07-06T13:31:49;5.40;;;1.38;;
45988;SDS011;31718;50.762;12.764;2022-07-06T13:34:15;5.88;;;1.50;;
45988;SDS011;31718;50.762;12.764;2022-07-06T13:36:41;4.00;;;1.42;;
45988;SDS011;31718;50.762;12.764;2022-07-06T13:39:07;4.45;;;1.40;;
45988;SDS011;31718;50.762;12.764;2022-07-06T13:41:33;5.75;;;1.60;;
45988;SDS011;31718;50.762;12.764;2022-07-06T13:43:59;5.05;;;1.58;;
45988;SDS011;31718;50.762;12.764;2022-07-06T13:46:26;5.95;;;1.60;;
45988;SDS011;31718;50.762;12.764;2022-07-06T13:48:52;3.90;;;1.50;;
45988;SDS011;31718;50.762;12.764;2022-07-06T13:51:18;6.57;;;1.55;;
45988;SDS011;31718;50.762;12.764;2022-07-06T13:53:43;7.32;;;1.90;;
45988;SDS011;31718;50.762;12.764;2022-07-06T13:56:10;5.57;;;1.40;;
45988;SDS011;31718;50.762;12.764;2022-07-06T13:58:36;6.03;;;1.55;;
45988;SDS011;31718;50.762;12.764;2022-07-06T14:01:03;6.00;;;1.50;;
45988;SDS011;31718;50.762;12.764;2022-07-06T14:03:29;5.43;;;1.40;;
45988;SDS011;31718;50.762;12.764;2022-07-06T14:05:58;9.00;;;1.40;;
45988;SDS011;31718;50.762;12.764;2022-07-06T14:08:25;4.93;;;1.40;;
45988;SDS011;31718;50.762;12.764;2022-07-06T14:10:51;5.15;;;1.25;;
45988;SDS011;31718;50.762;12.764;2022-07-06T14:13:18;4.38;;;1.33;;
45988;SDS011;31718;50.762;12.764;2022-07-06T14:15:44;4.20;;;1.30;;
45988;SDS011;31718;50.762;12.764;2022-07-06T14:18:10;4.82;;;1.30;;
45988;SDS011;31718;50.762;12.764;2022-07-06T14:20:35;4.90;;;1.30;;
45988;SDS011;31718;50.762;12.764;2022-07-06T14:23:01;4.68;;;1.42;;
45988;SDS011;31718;50.762;12.764;2022-07-06T14:25:27;4.20;;;1.20;;
45988;SDS011;31718;50.762;12.764;2022-07-06T14:27:53;4.85;;;1.45;;
45988;SDS011;31718;50.762;12.764;2022-07-06T14:30:18;3.47;;;1.10;;
45988;SDS011;31718;50.762;12.764;2022-07-06T14:32:44;3.65;;;1.15;;
45988;SDS011;31718;50.762;12.764;2022-07-06T14:35:10;4.65;;;1.08;;
45988;SDS011;31718;50.762;12.764;2022-07-06T14:37:36;3.60;;;1.10;;
45988;SDS011;31718;50.762;12.764;2022-07-06T14:40:03;4.43;;;1.40;;
45988;SDS011;31718;50.762;12.764;2022-07-06T14:42:29;5.13;;;1.10;;
45988;SDS011;31718;50.762;12.764;2022-07-06T14:44:55;3.80;;;0.93;;
45988;SDS011;31718;50.762;12.764;2022-07-06T14:47:20;4.28;;;1.00;;
45988;SDS011;31718;50.762;12.764;2022-07-06T14:49:46;5.28;;;1.08;;
45988;SDS011;31718;50.762;12.764;2022-07-06T14:52:12;6.65;;;1.20;;